Time;durP1;ratioP1;P1;durP2;ratioP2;P2;SDS_P1;SDS_P2;PMS_P1;PMS_P2;Temp;Humidity;BMP_temperature;BMP_pressure;BME280_temperature;BME280_humidity;BME280_pressure;Samples;Min_cycle;Max_cycle;Signal;HPM_P1;HPM_P2
2023/01/21 00:00:06;;;;;;;21.60;15.90;;;;;;;-2.49;100.00;101487.75;699747;28;1068;-66
2023/01/21 00:00:26;;;;;;;22.37;15.27;;;;;;;-2.49;100.00;101487.75;699514;28;1205;-66
2023/01/21 00:00:48;;;;;;;21.95;14.90;;;;;;;-2.47;100.00;101495.50;699247;28;4586;-65
2023/01/21 00:01:09;;;;;;;23.65;16.08;;;;;;;-2.46;100.00;101499.84;699463;28;1274;-67
2023/01/21 00:01:29;;;;;;;23.55;16.60;;;;;;;-2.45;100.00;101497.38;700896;28;1004;-67
2023/01/21 00:01:49;;;;;;;22.00;16.03;;;;;;;-2.45;100.00;101493.91;700186;28;1186;-66
2023/01/21 00:02:10;;;;;;;21.90;15.07;;;;;;;-2.42;100.00;101499.25;699862;28;1296;-66
2023/01/21 00:02:31;;;;;;;22.07;15.20;;;;;;;-2.41;100.00;101495.88;700907;28;1110;-66
2023/01/21 00:02:51;;;;;;;21.53;15.67;;;;;;;-2.39;100.00;101496.88;700248;28;1076;-66
2023/01/21 00:03:11;;;;;;;23.10;15.77;;;;;;;-2.41;100.00;101494.22;700007;28;1043;-66
2023/01/21 00:03:32;;;;;;;22.05;15.65;;;;;;;-2.41;100.00;101496.78;700464;28;1194;-67
2023/01/21 00:03:52;;;;;;;23.70;15.82;;;;;;;-2.42;100.00;101500.13;699775;28;4297;-66
2023/01/21 00:04:13;;;;;;;22.13;14.83;;;;;;;-2.40;100.00;101503.66;700424;28;1230;-66
2023/01/21 00:04:36;;;;;;;22.05;14.85;;;;;;;-2.43;100.00;101500.03;697492;28;1195;-66
2023/01/21 00:04:57;;;;;;;22.83;15.05;;;;;;;-2.49;100.00;101497.06;693456;28;2187;-66
2023/01/21 00:05:20;;;;;;;24.10;14.98;;;;;;;-2.49;100.00;101502.19;697113;28;1344;-65
2023/01/21 00:05:40;;;;;;;21.00;14.27;;;;;;;-2.49;100.00;101508.22;697424;28;1330;-67
2023/01/21 00:06:01;;;;;;;22.80;14.77;;;;;;;-2.48;100.00;101497.19;696200;28;1400;-66
2023/01/21 00:06:21;;;;;;;21.60;14.53;;;;;;;-2.47;100.00;101501.50;698665;28;1418;-66
2023/01/21 00:06:42;;;;;;;21.02;14.43;;;;;;;-2.48;100.00;101509.09;700025;28;4665;-65
2023/01/21 00:07:06;;;;;;;20.80;14.63;;;;;;;-2.52;100.00;101508.03;699372;28;1164;-66
2023/01/21 00:07:26;;;;;;;20.45;14.65;;;;;;;-2.49;100.00;101503.09;700009;28;1083;-66
2023/01/21 00:07:47;;;;;;;22.42;14.82;;;;;;;-2.46;100.00;101507.53;700781;28;1269;-66
2023/01/21 00:08:07;;;;;;;23.23;14.97;;;;;;;-2.47;100.00;101511.75;700421;28;1123;-66
2023/01/21 00:08:28;;;;;;;21.92;14.68;;;;;;;-2.47;100.00;101501.50;699300;28;1238;-66
2023/01/21 00:08:48;;;;;;;22.90;15.47;;;;;;;-2.44;100.00;101503.38;699408;28;1094;-66
2023/01/21 00:09:09;;;;;;;23.90;16.23;;;;;;;-2.44;100.00;101501.72;699256;28;1273;-67
2023/01/21 00:09:30;;;;;;;24.58;15.98;;;;;;;-2.44;100.00;101506.84;700613;28;1253;-66
2023/01/21 00:09:50;;;;;;;21.92;14.90;;;;;;;-2.46;100.00;101508.41;697408;28;4291;-66
2023/01/21 00:10:11;;;;;;;23.45;14.70;;;;;;;-2.48;100.00;101506.53;695912;28;1134;-66
2023/01/21 00:10:32;;;;;;;20.03;13.77;;;;;;;-2.48;100.00;101504.88;696594;28;1349;-66
2023/01/21 00:10:53;;;;;;;19.40;13.63;;;;;;;-2.47;100.00;101505.75;696705;28;1262;-67
2023/01/21 00:11:14;;;;;;;21.77;14.15;;;;;;;-2.47;100.00;101511.75;695462;28;1221;-66
2023/01/21 00:11:35;;;;;;;22.00;14.70;;;;;;;-2.49;100.00;101513.34;696619;28;1349;-66
2023/01/21 00:11:57;;;;;;;21.50;14.60;;;;;;;-2.49;100.00;101510.78;698596;28;1052;-66
2023/01/21 00:12:17;;;;;;;22.10;14.18;;;;;;;-2.48;100.00;101504.88;700770;28;1119;-66
2023/01/21 00:12:38;;;;;;;22.10;14.90;;;;;;;-2.48;100.00;101510.00;700131;28;4456;-66
2023/01/21 00:12:58;;;;;;;22.13;14.77;;;;;;;-2.49;100.00;101513.34;700720;28;1214;-66
2023/01/21 00:13:19;;;;;;;23.27;15.30;;;;;;;-2.46;100.00;101510.09;700573;28;1241;-67
2023/01/21 00:13:40;;;;;;;22.07;14.40;;;;;;;-2.46;100.00;101515.22;697268;28;1248;-66
2023/01/21 00:14:00;;;;;;;20.45;14.00;;;;;;;-2.46;100.00;101512.66;696784;28;1106;-66
2023/01/21 00:14:20;;;;;;;21.53;14.10;;;;;;;-2.47;100.00;101519.44;694444;28;1699;-66
2023/01/21 00:14:41;;;;;;;21.55;13.45;;;;;;;-2.48;100.00;101517.69;694847;28;1101;-66
2023/01/21 00:15:01;;;;;;;19.57;13.00;;;;;;;-2.47;100.00;101521.13;695086;28;1088;-66
2023/01/21 00:15:22;;;;;;;19.92;13.05;;;;;;;-2.49;100.00;101515.00;694813;28;1461;-66
2023/01/21 00:15:42;;;;;;;18.77;13.03;;;;;;;-2.49;100.00;101522.69;697379;28;4309;-66
2023/01/21 00:16:03;;;;;;;18.03;12.50;;;;;;;-2.49;100.00;101523.59;697969;28;1128;-66
2023/01/21 00:16:24;;;;;;;17.15;12.35;;;;;;;-2.52;100.00;101518.28;697653;28;1154;-66
2023/01/21 00:16:44;;;;;;;18.37;12.43;;;;;;;-2.50;100.00;101528.63;698134;28;1288;-66
2023/01/21 00:17:05;;;;;;;17.73;12.80;;;;;;;-2.51;100.00;101525.16;697758;28;1086;-66
2023/01/21 00:17:25;;;;;;;18.00;13.07;;;;;;;-2.52;100.00;101525.97;697889;28;1134;-66
2023/01/21 00:17:45;;;;;;;19.50;13.10;;;;;;;-2.50;100.00;101532.06;697983;28;1134;-66
2023/01/21 00:18:06;;;;;;;19.00;12.47;;;;;;;-2.50;100.00;101526.94;695236;28;1099;-67
2023/01/21 00:18:27;;;;;;;18.35;12.15;;;;;;;-2.50;100.00;101534.63;698376;28;1253;-66
2023/01/21 00:18:47;;;;;;;21.02;12.60;;;;;;;-2.50;100.00;101536.28;697009;28;4361;-66
2023/01/21 00:19:08;;;;;;;20.20;12.60;;;;;;;-2.51;100.00;101532.84;698096;28;1067;-67
2023/01/21 00:19:28;;;;;;;18.83;12.48;;;;;;;-2.48;100.00;101537.25;695351;28;1341;-66
2023/01/21 00:19:48;;;;;;;18.87;12.67;;;;;;;-2.47;100.00;101536.47;695483;28;1114;-66
2023/01/21 00:20:11;;;;;;;19.05;12.70;;;;;;;-2.48;100.00;101530.50;697423;28;3677;-66
2023/01/21 00:20:32;;;;;;;19.20;12.40;;;;;;;-2.48;100.00;101535.59;698166;28;1063;-66
2023/01/21 00:20:52;;;;;;;17.40;11.80;;;;;;;-2.48;100.00;101535.59;698311;28;1035;-66
2023/01/21 00:21:13;;;;;;;17.52;11.77;;;;;;;-2.55;100.00;101528.31;698133;28;1020;-66
2023/01/21 00:21:33;;;;;;;18.90;12.30;;;;;;;-2.59;100.00;101536.59;700402;28;1067;-67
2023/01/21 00:21:54;;;;;;;18.98;12.20;;;;;;;-2.60;100.00;101537.41;700418;28;4274;-66
2023/01/21 00:22:14;;;;;;;18.75;12.55;;;;;;;-2.57;100.00;101537.59;699913;28;1511;-65
2023/01/21 00:22:35;;;;;;;18.93;12.60;;;;;;;-2.59;100.00;101531.47;700682;28;1031;-67
2023/01/21 00:22:55;;;;;;;17.98;12.05;;;;;;;-2.57;100.00;101540.16;700514;28;1178;-66
2023/01/21 00:23:16;;;;;;;18.90;12.67;;;;;;;-2.57;100.00;101541.03;699436;28;1130;-67
2023/01/21 00:23:36;;;;;;;20.65;12.52;;;;;;;-2.58;100.00;101538.38;700329;28;1267;-66
2023/01/21 00:23:56;;;;;;;18.83;12.07;;;;;;;-2.57;100.00;101543.56;699966;28;1190;-66
2023/01/21 00:24:17;;;;;;;16.33;12.03;;;;;;;-2.59;100.00;101541.72;699770;28;1360;-66
2023/01/21 00:24:37;;;;;;;18.97;13.17;;;;;;;-2.61;100.00;101543.31;698781;28;4520;-67
2023/01/21 00:24:58;;;;;;;18.60;13.03;;;;;;;-2.64;100.00;101540.56;698043;28;1092;-66
2023/01/21 00:25:19;;;;;;;17.33;12.45;;;;;;;-2.63;100.00;101545.78;697745;28;1341;-66
2023/01/21 00:25:40;;;;;;;17.92;12.68;;;;;;;-2.66;100.00;101543.03;698059;28;1427;-66
2023/01/21 00:26:03;;;;;;;18.53;12.27;;;;;;;-2.63;100.00;101545.78;697495;28;1163;-67
2023/01/21 00:26:24;;;;;;;19.20;12.77;;;;;;;-2.63;100.00;101549.97;697938;28;1119;-67
2023/01/21 00:26:44;;;;;;;19.30;12.87;;;;;;;-2.62;100.00;101546.66;699013;28;1059;-67
2023/01/21 00:27:04;;;;;;;17.57;12.33;;;;;;;-2.63;100.00;101543.22;700795;28;1043;-66
2023/01/21 00:27:25;;;;;;;19.10;12.80;;;;;;;-2.56;100.00;101547.03;701012;28;1063;-66
2023/01/21 00:27:45;;;;;;;17.90;12.38;;;;;;;-2.53;100.00;101547.22;696447;28;4307;-67
2023/01/21 00:28:06;;;;;;;17.87;11.90;;;;;;;-2.48;100.00;101542.38;695628;28;1284;-67
2023/01/21 00:28:31;;;;;;;17.42;12.15;;;;;;;-2.54;100.00;101549.69;697836;28;1090;-67
2023/01/21 00:28:51;;;;;;;17.35;12.40;;;;;;;-2.58;100.00;101548.59;694778;28;1099;-66
2023/01/21 00:29:11;;;;;;;17.83;12.23;;;;;;;-2.56;100.00;101549.59;693605;28;1142;-67
2023/01/21 00:29:32;;;;;;;17.17;12.43;;;;;;;-2.52;100.00;101548.09;694533;28;1155;-67
2023/01/21 00:29:52;;;;;;;17.70;12.53;;;;;;;-2.52;100.00;101548.09;693924;28;1128;-67
2023/01/21 00:30:13;;;;;;;18.17;12.32;;;;;;;-2.50;100.00;101554.22;692709;28;1071;-67
2023/01/21 00:30:35;;;;;;;17.63;11.93;;;;;;;-2.49;100.00;101554.31;693716;28;1334;-67
2023/01/21 00:31:04;;;;;;;16.90;12.10;;;;;;;-2.53;100.00;101557.47;693077;28;4362;-66
2023/01/21 00:31:25;;;;;;;18.65;12.15;;;;;;;-2.53;100.00;101556.56;691668;28;1116;-66
2023/01/21 00:31:46;;;;;;;18.10;12.35;;;;;;;-2.55;100.00;101553.03;691733;28;1407;-66
2023/01/21 00:32:07;;;;;;;17.73;11.52;;;;;;;-2.54;100.00;101560.81;687826;28;1084;-66
2023/01/21 00:32:28;;;;;;;17.23;11.70;;;;;;;-2.54;100.00;101559.94;689728;28;986;-67
2023/01/21 00:32:48;;;;;;;17.53;11.67;;;;;;;-2.54;100.00;101555.69;689811;28;1061;-66
2023/01/21 00:33:09;;;;;;;16.83;11.30;;;;;;;-2.46;100.00;101564.75;687381;28;1006;-66
2023/01/21 00:33:31;;;;;;;16.87;11.53;;;;;;;-2.43;100.00;101567.47;691305;28;1136;-67
2023/01/21 00:33:51;;;;;;;18.45;11.85;;;;;;;-2.44;100.00;101563.19;692568;28;4497;-66
2023/01/21 00:34:11;;;;;;;18.20;11.90;;;;;;;-2.44;100.00;101559.72;692615;28;1168;-66
2023/01/21 00:34:32;;;;;;;17.10;11.68;;;;;;;-2.43;100.00;101569.16;694645;28;1084;-66
2023/01/21 00:34:52;;;;;;;16.57;11.70;;;;;;;-2.44;100.00;101565.75;694156;28;1103;-66
2023/01/21 00:35:13;;;;;;;16.60;11.45;;;;;;;-2.47;100.00;101562.97;697673;28;1196;-66
2023/01/21 00:35:34;;;;;;;18.17;11.48;;;;;;;-2.44;100.00;101558.06;695133;28;1443;-66
2023/01/21 00:36:12;;;;;;;17.98;11.80;;;;;;;-2.40;100.00;101559.97;695607;28;1235;-67
2023/01/21 00:36:32;;;;;;;16.67;11.77;;;;;;;-2.41;100.00;101568.47;697639;28;1261;-67
2023/01/21 00:36:53;;;;;;;17.27;11.85;;;;;;;-2.44;100.00;101562.28;697009;28;4259;-66
2023/01/21 00:37:13;;;;;;;16.93;11.63;;;;;;;-2.43;100.00;101566.59;697069;28;1203;-66
2023/01/21 00:37:34;;;;;;;17.97;12.07;;;;;;;-2.43;100.00;101567.47;697686;28;1294;-67
2023/01/21 00:37:54;;;;;;;17.27;12.05;;;;;;;-2.46;100.00;101564.75;696774;28;1242;-67
2023/01/21 00:38:14;;;;;;;17.97;12.43;;;;;;;-2.48;100.00;101565.44;697076;28;1342;-66
2023/01/21 00:38:35;;;;;;;17.38;12.30;;;;;;;-2.48;100.00;101571.47;697793;28;1260;-66
2023/01/21 00:38:55;;;;;;;17.97;11.63;;;;;;;-2.49;100.00;101569.69;700781;28;5032;-66
2023/01/21 00:39:16;;;;;;;17.53;11.63;;;;;;;-2.47;100.00;101568.09;700928;28;1348;-66
2023/01/21 00:39:41;;;;;;;17.10;12.00;;;;;;;-2.50;100.00;101573.03;701020;28;4393;-66
2023/01/21 00:40:04;;;;;;;17.33;12.00;;;;;;;-2.52;100.00;101572.06;700576;28;1040;-66
2023/01/21 00:40:25;;;;;;;16.60;12.23;;;;;;;-2.55;100.00;101561.59;700999;28;1082;-66
2023/01/21 00:40:45;;;;;;;16.67;11.88;;;;;;;-2.50;100.00;101567.91;701615;28;994;-66
2023/01/21 00:41:08;;;;;;;18.40;12.30;;;;;;;-2.56;100.00;101564.97;700994;28;1033;-67
2023/01/21 00:41:29;;;;;;;18.60;12.50;;;;;;;-2.55;100.00;101570.97;697729;28;1297;-67
2023/01/21 00:41:49;;;;;;;17.80;11.77;;;;;;;-2.54;100.00;101572.75;698158;28;1095;-66
2023/01/21 00:42:12;;;;;;;18.47;12.13;;;;;;;-2.49;100.00;101569.69;697770;28;1183;-66
2023/01/21 00:42:33;;;;;;;18.13;12.23;;;;;;;-2.51;100.00;101573.81;698076;28;1030;-66
2023/01/21 00:42:53;;;;;;;18.33;11.53;;;;;;;-2.49;100.00;101568.78;697736;28;4645;-67
2023/01/21 00:43:13;;;;;;;17.67;12.00;;;;;;;-2.52;100.00;101566.94;698488;28;1266;-66
2023/01/21 00:43:34;;;;;;;16.45;11.48;;;;;;;-2.53;100.00;101572.84;701702;28;1078;-67
2023/01/21 00:43:55;;;;;;;18.10;11.70;;;;;;;-2.45;100.00;101571.63;701114;28;1078;-67
2023/01/21 00:44:16;;;;;;;17.27;11.93;;;;;;;-2.41;100.00;101572.69;700932;28;1239;-66
2023/01/21 00:44:37;;;;;;;17.60;11.82;;;;;;;-2.42;100.00;101569.25;700595;28;1218;-67
2023/01/21 00:44:58;;;;;;;18.80;12.25;;;;;;;-2.42;100.00;101571.81;701218;28;1012;-66
2023/01/21 00:45:19;;;;;;;18.75;12.05;;;;;;;-2.40;100.00;101571.91;701197;28;1349;-67
2023/01/21 00:45:40;;;;;;;18.85;12.18;;;;;;;-2.44;100.00;101575.06;701066;28;4371;-66
2023/01/21 00:46:00;;;;;;;19.15;12.07;;;;;;;-2.48;100.00;101581.69;697140;28;1036;-66
2023/01/21 00:46:21;;;;;;;17.25;12.40;;;;;;;-2.52;100.00;101574.63;695729;28;1155;-66
2023/01/21 00:46:41;;;;;;;18.90;11.83;;;;;;;-2.53;100.00;101577.03;695519;28;1086;-66
2023/01/21 00:47:02;;;;;;;18.70;11.88;;;;;;;-2.53;100.00;101577.03;695663;28;992;-66
2023/01/21 00:47:23;;;;;;;18.57;12.13;;;;;;;-2.54;100.00;101578.72;695748;28;1257;-65
2023/01/21 00:47:43;;;;;;;16.88;11.77;;;;;;;-2.53;100.00;101572.84;695588;28;1154;-65
2023/01/21 00:48:04;;;;;;;16.33;11.68;;;;;;;-2.50;100.00;101578.13;698529;28;1265;-66
2023/01/21 00:48:24;;;;;;;16.50;11.70;;;;;;;-2.45;100.00;101580.97;698585;28;1051;-66
2023/01/21 00:48:45;;;;;;;18.10;11.88;;;;;;;-2.49;100.00;101582.47;697147;28;4302;-66
2023/01/21 00:49:07;;;;;;;17.70;11.75;;;;;;;-2.53;100.00;101580.50;698367;28;1023;-67
2023/01/21 00:49:27;;;;;;;19.20;11.80;;;;;;;-2.52;100.00;101578.81;697219;28;1298;-66
2023/01/21 00:49:47;;;;;;;18.60;12.10;;;;;;;-2.57;100.00;101576.88;695468;28;1339;-66
2023/01/21 00:50:09;;;;;;;17.65;11.77;;;;;;;-2.55;100.00;101584.63;695950;28;1033;-67
2023/01/21 00:50:29;;;;;;;17.55;11.70;;;;;;;-2.53;100.00;101580.50;698201;28;1370;-67
2023/01/21 00:50:50;;;;;;;18.33;11.77;;;;;;;-2.55;100.00;101576.09;698045;28;1158;-66
2023/01/21 00:51:11;;;;;;;18.33;11.75;;;;;;;-2.54;100.00;101582.97;697917;28;1055;-66
2023/01/21 00:51:31;;;;;;;17.35;11.40;;;;;;;-2.53;100.00;101572.84;698278;28;1138;-65
2023/01/21 00:51:52;;;;;;;18.27;12.07;;;;;;;-2.54;100.00;101581.28;699992;28;4376;-66
2023/01/21 00:52:12;;;;;;;17.23;11.90;;;;;;;-2.55;100.00;101584.63;701052;28;1248;-66
2023/01/21 00:52:32;;;;;;;17.33;12.05;;;;;;;-2.55;100.00;101583.75;701335;28;1199;-66
2023/01/21 00:52:53;;;;;;;18.40;12.47;;;;;;;-2.54;100.00;101588.09;700828;28;1202;-66
2023/01/21 00:53:13;;;;;;;18.40;12.10;;;;;;;-2.59;100.00;101580.13;701003;28;1546;-66
2023/01/21 00:53:36;;;;;;;18.20;12.20;;;;;;;-2.66;100.00;101588.19;700878;28;1181;-67
2023/01/21 00:53:57;;;;;;;17.70;12.02;;;;;;;-2.69;100.00;101582.88;700092;28;1321;-67
2023/01/21 00:54:17;;;;;;;16.50;11.60;;;;;;;-2.68;100.00;101590.66;701158;28;1162;-67
2023/01/21 00:54:38;;;;;;;17.60;12.07;;;;;;;-2.68;100.00;101584.66;700284;28;4360;-67
2023/01/21 00:54:58;;;;;;;17.70;11.93;;;;;;;-2.66;100.00;101593.31;700372;28;1201;-66
2023/01/21 00:55:19;;;;;;;18.52;12.02;;;;;;;-2.68;100.00;101592.34;701329;28;1139;-66
2023/01/21 00:55:39;;;;;;;18.50;12.10;;;;;;;-2.70;100.00;101589.69;701590;28;1337;-66
2023/01/21 00:56:05;;;;;;;18.60;12.50;;;;;;;-2.71;100.00;101592.13;700665;28;1376;-66
2023/01/21 00:56:26;;;;;;;16.95;12.63;;;;;;;-2.67;100.00;101588.97;700886;28;1027;-66
2023/01/21 00:56:46;;;;;;;17.23;12.27;;;;;;;-2.69;100.00;101586.31;700663;28;1070;-66
2023/01/21 00:57:07;;;;;;;17.67;12.00;;;;;;;-2.74;100.00;101586.03;700968;28;1113;-67
2023/01/21 00:57:27;;;;;;;17.95;11.73;;;;;;;-2.75;100.00;101591.94;700388;28;1399;-67
2023/01/21 00:57:47;;;;;;;17.40;11.73;;;;;;;-2.70;100.00;101593.91;700054;28;4373;-66
2023/01/21 00:58:08;;;;;;;17.07;12.13;;;;;;;-2.69;100.00;101594.00;700914;28;1113;-66
2023/01/21 00:58:29;;;;;;;18.48;11.82;;;;;;;-2.68;100.00;101588.09;701316;28;1210;-66
2023/01/21 00:58:49;;;;;;;17.53;11.93;;;;;;;-2.69;100.00;101591.44;701323;28;2033;-67
2023/01/21 00:59:10;;;;;;;17.58;12.25;;;;;;;-2.62;100.00;101597.84;699119;28;1174;-67
2023/01/21 00:59:30;;;;;;;17.77;12.17;;;;;;;-2.65;100.00;101589.97;700633;28;1321;-67
2023/01/21 00:59:52;;;;;;;16.90;11.83;;;;;;;-2.64;100.00;101589.19;701578;28;1114;-66
2023/01/21 01:00:13;;;;;;;16.42;11.45;;;;;;;-2.61;100.00;101594.50;700613;28;1063;-66
2023/01/21 01:00:34;;;;;;;19.13;12.10;;;;;;;-2.60;100.00;101591.16;700815;28;1364;-66
2023/01/21 01:01:01;;;;;;;19.20;12.40;;;;;;;-2.64;100.00;101605.44;700507;28;4434;-66
2023/01/21 01:01:21;;;;;;;17.25;12.18;;;;;;;-2.65;100.00;101597.66;700816;28;1165;-67
2023/01/21 01:01:42;;;;;;;17.67;11.90;;;;;;;-2.63;100.00;101598.63;701017;28;1091;-66
2023/01/21 01:02:02;;;;;;;18.48;12.32;;;;;;;-2.65;100.00;101597.66;700789;28;1110;-66
2023/01/21 01:02:23;;;;;;;17.63;12.20;;;;;;;-2.64;100.00;101597.75;701502;28;1059;-67
2023/01/21 01:02:43;;;;;;;17.53;11.30;;;;;;;-2.58;100.00;101600.69;697527;28;1121;-66
2023/01/21 01:03:03;;;;;;;17.50;11.40;;;;;;;-2.54;100.00;101603.47;698267;28;1117;-67
2023/01/21 01:03:24;;;;;;;17.30;12.00;;;;;;;-2.57;100.00;101604.16;695411;28;1331;-67
2023/01/21 01:03:46;;;;;;;17.10;11.98;;;;;;;-2.59;100.00;101598.94;695375;28;4519;-66
2023/01/21 01:04:06;;;;;;;16.17;11.85;;;;;;;-2.59;100.00;101606.63;695564;28;1083;-65
2023/01/21 01:04:27;;;;;;;16.52;11.82;;;;;;;-2.61;100.00;101603.06;696254;28;1139;-67
2023/01/21 01:04:47;;;;;;;16.50;11.73;;;;;;;-2.63;100.00;101596.97;698218;28;1123;-66
2023/01/21 01:05:08;;;;;;;16.30;11.87;;;;;;;-2.61;100.00;101597.06;698652;28;1264;-67
2023/01/21 01:05:28;;;;;;;17.15;12.20;;;;;;;-2.59;100.00;101604.06;700789;28;1110;-66
2023/01/21 01:05:48;;;;;;;20.05;12.77;;;;;;;-2.59;100.00;101603.16;700569;28;1323;-66
2023/01/21 01:06:22;;;;;;;18.47;12.63;;;;;;;-2.57;100.00;101601.59;700659;28;1115;-67
2023/01/21 01:06:42;;;;;;;18.65;12.27;;;;;;;-2.60;100.00;101601.41;700297;28;4301;-66
2023/01/21 01:07:03;;;;;;;19.07;12.30;;;;;;;-2.60;100.00;101601.41;700400;28;1126;-67
2023/01/21 01:07:23;;;;;;;17.67;11.95;;;;;;;-2.58;100.00;101597.25;700880;28;1301;-66
2023/01/21 01:07:45;;;;;;;17.87;11.60;;;;;;;-2.64;100.00;101605.44;701253;28;1150;-67
2023/01/21 01:08:05;;;;;;;18.40;11.77;;;;;;;-2.63;100.00;101604.66;700883;28;1383;-67
2023/01/21 01:08:25;;;;;;;18.57;11.97;;;;;;;-2.59;100.00;101604.06;700971;28;1091;-67
2023/01/21 01:08:48;;;;;;;18.52;11.55;;;;;;;-2.59;100.00;101600.59;701134;28;1162;-67
2023/01/21 01:09:09;;;;;;;17.05;11.65;;;;;;;-2.59;100.00;101606.63;700126;28;1113;-66
2023/01/21 01:09:30;;;;;;;16.27;11.75;;;;;;;-2.55;100.00;101600.00;700180;28;1405;-66
2023/01/21 01:09:50;;;;;;;16.67;11.97;;;;;;;-2.56;100.00;101603.38;699967;28;4557;-66
2023/01/21 01:10:10;;;;;;;18.10;11.95;;;;;;;-2.54;100.00;101609.47;700800;28;1043;-67
2023/01/21 01:10:31;;;;;;;17.80;11.87;;;;;;;-2.56;100.00;101603.38;698755;28;1123;-66
2023/01/21 01:10:53;;;;;;;16.95;12.20;;;;;;;-2.58;100.00;101599.81;696610;28;1329;-67
2023/01/21 01:11:14;;;;;;;17.08;11.80;;;;;;;-2.61;100.00;101604.75;693990;28;1267;-67
2023/01/21 01:11:35;;;;;;;16.25;11.68;;;;;;;-2.60;100.00;101606.53;696570;28;1127;-66
2023/01/21 01:11:55;;;;;;;16.73;11.52;;;;;;;-2.58;100.00;101604.94;696321;28;1313;-66
2023/01/21 01:12:16;;;;;;;18.17;11.77;;;;;;;-2.57;100.00;101606.72;697188;28;1170;-66
2023/01/21 01:12:36;;;;;;;17.67;12.20;;;;;;;-2.57;100.00;101601.59;698594;28;4522;-67
2023/01/21 01:12:56;;;;;;;17.67;12.27;;;;;;;-2.58;100.00;101599.81;699394;28;1150;-66
2023/01/21 01:13:17;;;;;;;17.77;12.20;;;;;;;-2.60;100.00;101609.09;700670;28;1222;-67
2023/01/21 01:13:38;;;;;;;17.27;12.00;;;;;;;-2.65;100.00;101613.00;700778;28;1190;-66
2023/01/21 01:13:58;;;;;;;16.90;11.85;;;;;;;-2.68;100.00;101606.03;699765;28;1198;-67
2023/01/21 01:14:18;;;;;;;17.05;11.52;;;;;;;-2.67;100.00;101610.38;701123;28;1412;-66
2023/01/21 01:14:39;;;;;;;17.10;11.70;;;;;;;-2.68;100.00;101606.03;700186;28;1207;-66
2023/01/21 01:14:59;;;;;;;17.57;11.90;;;;;;;-2.69;100.00;101616.16;701277;28;1143;-66
2023/01/21 01:15:19;;;;;;;17.88;12.38;;;;;;;-2.71;100.00;101610.94;700961;28;1392;-66
2023/01/21 01:15:40;;;;;;;16.23;11.67;;;;;;;-2.74;100.00;101609.06;701291;28;4535;-67
2023/01/21 01:16:01;;;;;;;16.77;11.88;;;;;;;-2.74;100.00;101613.31;700583;28;1368;-67
2023/01/21 01:16:22;;;;;;;17.85;11.95;;;;;;;-2.71;100.00;101612.59;701007;28;3300;-67
2023/01/21 01:16:43;;;;;;;17.80;11.57;;;;;;;-2.71;100.00;101613.50;701322;28;1099;-66
2023/01/21 01:17:03;;;;;;;18.90;12.37;;;;;;;-2.72;100.00;101611.72;700732;28;1537;-66
2023/01/21 01:17:24;;;;;;;19.23;12.80;;;;;;;-2.71;100.00;101612.59;700440;28;1068;-67
2023/01/21 01:17:44;;;;;;;18.77;12.57;;;;;;;-2.70;100.00;101619.50;700587;28;1114;-67
2023/01/21 01:18:04;;;;;;;18.53;12.67;;;;;;;-2.69;100.00;101616.16;700229;28;1032;-66
2023/01/21 01:18:26;;;;;;;16.70;11.90;;;;;;;-2.70;100.00;101620.41;700896;28;1131;-66
2023/01/21 01:18:47;;;;;;;17.25;11.90;;;;;;;-2.70;100.00;101620.41;699981;28;4487;-66
2023/01/21 01:19:08;;;;;;;17.58;12.18;;;;;;;-2.70;100.00;101619.50;700553;28;1906;-67
2023/01/21 01:19:29;;;;;;;17.88;12.10;;;;;;;-2.69;100.00;101617.03;699898;28;1047;-67
2023/01/21 01:19:49;;;;;;;18.17;12.63;;;;;;;-2.67;100.00;101622.25;701080;28;1137;-67
2023/01/21 01:20:10;;;;;;;19.80;12.77;;;;;;;-2.69;100.00;101627.28;701219;28;972;-67
2023/01/21 01:20:30;;;;;;;19.75;12.30;;;;;;;-2.69;100.00;101624.72;697905;28;1301;-67
2023/01/21 01:20:51;;;;;;;16.33;12.40;;;;;;;-2.67;100.00;101627.38;698492;28;999;-66
2023/01/21 01:21:15;;;;;;;16.38;12.27;;;;;;;-2.66;100.00;101626.59;695269;28;1282;-67
2023/01/21 01:21:35;;;;;;;17.48;12.63;;;;;;;-2.63;100.00;101622.56;694343;28;1128;-67
2023/01/21 01:21:55;;;;;;;17.00;12.33;;;;;;;-2.56;100.00;101623.84;693478;28;4359;-66
2023/01/21 01:22:16;;;;;;;17.30;12.30;;;;;;;-2.59;100.00;101626.19;694549;28;1236;-66
2023/01/21 01:22:36;;;;;;;16.97;12.07;;;;;;;-2.59;100.00;101628.75;695645;28;1179;-67
2023/01/21 01:22:56;;;;;;;17.48;12.07;;;;;;;-2.61;100.00;101627.78;696185;28;1191;-67
2023/01/21 01:23:17;;;;;;;18.67;11.97;;;;;;;-2.61;100.00;101622.66;698498;28;1229;-66
2023/01/21 01:23:38;;;;;;;18.70;12.30;;;;;;;-2.61;100.00;101622.66;698430;28;1262;-67
2023/01/21 01:24:01;;;;;;;18.30;12.35;;;;;;;-2.62;100.00;101629.44;698143;28;1143;-67
2023/01/21 01:24:22;;;;;;;17.60;12.05;;;;;;;-2.62;100.00;101628.56;698557;28;1123;-66
2023/01/21 01:24:42;;;;;;;17.45;11.70;;;;;;;-2.63;100.00;101631.91;699409;28;4627;-67
2023/01/21 01:25:03;;;;;;;17.60;12.37;;;;;;;-2.69;100.00;101628.97;701032;28;1079;-67
2023/01/21 01:25:23;;;;;;;17.02;12.07;;;;;;;-2.72;100.00;101631.34;699821;28;1103;-66
2023/01/21 01:25:52;;;;;;;17.07;12.10;;;;;;;-2.68;100.00;101630.75;701263;28;1122;-67
2023/01/21 01:26:19;;;;;;;16.90;12.32;;;;;;;-2.67;100.00;101635.97;697015;28;1266;-68
2023/01/21 01:26:40;;;;;;;17.48;12.57;;;;;;;-2.65;100.00;101629.25;696597;28;1326;-67
2023/01/21 01:27:00;;;;;;;18.57;12.97;;;;;;;-2.65;100.00;101636.94;697250;28;1172;-66
2023/01/21 01:27:20;;;;;;;18.52;12.85;;;;;;;-2.64;100.00;101635.28;695441;28;1401;-66
2023/01/21 01:27:41;;;;;;;18.20;12.77;;;;;;;-2.64;100.00;101628.47;695112;28;4385;-67
2023/01/21 01:28:01;;;;;;;18.53;12.60;;;;;;;-2.64;100.00;101627.59;697684;28;1035;-67
2023/01/21 01:28:22;;;;;;;19.60;13.10;;;;;;;-2.64;100.00;101627.59;697603;28;1163;-66
2023/01/21 01:28:42;;;;;;;18.60;12.50;;;;;;;-2.67;100.00;101632.50;698305;28;1006;-67
2023/01/21 01:29:03;;;;;;;18.93;12.83;;;;;;;-2.65;100.00;101633.50;698123;28;1203;-67
2023/01/21 01:29:24;;;;;;;18.15;12.65;;;;;;;-2.67;100.00;101630.84;701581;28;1063;-67
2023/01/21 01:29:44;;;;;;;18.53;12.33;;;;;;;-2.66;100.00;101627.50;701408;28;1123;-67
2023/01/21 01:30:05;;;;;;;17.57;12.13;;;;;;;-2.67;100.00;101629.94;700985;28;1181;-67
2023/01/21 01:30:26;;;;;;;17.12;12.06;;;;;;;-2.71;100.00;101627.97;700641;28;1274;-67
2023/01/21 01:30:46;;;;;;;17.80;12.53;;;;;;;-2.71;100.00;101627.97;700652;28;4441;-67
2023/01/21 01:31:10;;;;;;;16.97;12.23;;;;;;;-2.71;100.00;101627.97;700812;28;967;-67
2023/01/21 01:31:31;;;;;;;18.30;12.63;;;;;;;-2.69;100.00;101631.53;700521;28;1075;-67
2023/01/21 01:31:51;;;;;;;18.50;12.60;;;;;;;-2.68;100.00;101630.75;701276;28;1308;-67
2023/01/21 01:32:11;;;;;;;16.85;12.15;;;;;;;-2.64;100.00;101637.84;698017;28;1037;-66
2023/01/21 01:32:32;;;;;;;16.53;11.93;;;;;;;-2.64;100.00;101640.41;697239;28;1047;-67
2023/01/21 01:32:52;;;;;;;17.02;12.15;;;;;;;-2.64;100.00;101638.72;698148;28;1107;-67
2023/01/21 01:33:12;;;;;;;17.67;12.17;;;;;;;-2.66;100.00;101636.84;697073;28;1066;-67
2023/01/21 01:33:33;;;;;;;16.80;11.77;;;;;;;-2.68;100.00;101634.19;697980;28;1169;-67
2023/01/21 01:33:55;;;;;;;16.30;11.70;;;;;;;-2.68;100.00;101638.44;697331;28;4439;-67
2023/01/21 01:34:15;;;;;;;16.27;11.63;;;;;;;-2.66;100.00;101639.41;700981;28;1146;-67
2023/01/21 01:34:37;;;;;;;17.25;11.60;;;;;;;-2.66;100.00;101636.84;700462;28;1305;-67
2023/01/21 01:34:57;;;;;;;16.42;11.40;;;;;;;-2.67;100.00;101645.28;697879;28;1256;-67
2023/01/21 01:35:17;;;;;;;15.80;11.13;;;;;;;-2.66;100.00;101647.06;698363;28;1261;-67
2023/01/21 01:35:38;;;;;;;17.33;11.40;;;;;;;-2.64;100.00;101650.63;697665;28;1336;-67
2023/01/21 01:36:19;;;;;;;17.17;11.50;;;;;;;-2.65;100.00;101647.16;698018;28;1247;-67
2023/01/21 01:36:39;;;;;;;16.05;11.63;;;;;;;-2.65;100.00;101651.41;697509;28;4371;-67